Time;durP1;ratioP1;P1;durP2;ratioP2;P2;SDS_P1;SDS_P2;PMS_P1;PMS_P2;Temp;Humidity;BMP_temperature;BMP_pressure;BME280_temperature;BME280_humidity;BME280_pressure;Samples;Min_cycle;Max_cycle;Signal;HPM_P1;HPM_P2
2023/02/17 00:01:22;;;;;;;8.02;2.72;;;;;;;6.68;77.44;98069.75;5050811;28;20051;-62
2023/02/17 00:03:50;;;;;;;5.82;3.13;;;;;;;6.74;77.14;98079.66;5050449;28;20133;-62
2023/02/17 00:06:19;;;;;;;5.55;3.05;;;;;;;6.51;77.73;98080.94;5053601;28;20044;-62
2023/02/17 00:08:46;;;;;;;6.53;3.15;;;;;;;6.34;78.66;98084.03;5056137;28;20503;-62
2023/02/17 00:11:14;;;;;;;8.35;4.05;;;;;;;6.26;78.78;98091.50;5053883;28;20127;-62
2023/02/17 00:13:41;;;;;;;6.57;3.47;;;;;;;6.33;79.34;98079.69;5058190;28;20587;-62
2023/02/17 00:16:21;;;;;;;7.60;3.55;;;;;;;6.21;79.36;98075.97;5050472;28;20411;-62
2023/02/17 00:18:52;;;;;;;9.05;4.30;;;;;;;6.05;80.25;98086.06;5053737;28;20068;-62
2023/02/17 00:21:21;;;;;;;8.93;5.07;;;;;;;5.84;82.46;98073.63;5049354;28;20550;-62
2023/02/17 00:23:48;;;;;;;7.85;5.50;;;;;;;5.75;82.64;98074.84;5056194;28;20048;-62
2023/02/17 00:26:16;;;;;;;10.32;5.90;;;;;;;5.63;83.49;98083.47;5050680;28;20286;-62
2023/02/17 00:28:45;;;;;;;9.15;4.97;;;;;;;5.54;83.17;98071.28;5051932;28;20040;-62
2023/02/17 00:31:15;;;;;;;7.47;4.57;;;;;;;5.46;83.79;98081.16;5052272;28;20102;-62
2023/02/17 00:33:42;;;;;;;6.43;3.45;;;;;;;5.55;84.30;98078.28;5057560;28;20040;-62
2023/02/17 00:36:18;;;;;;;6.97;2.97;;;;;;;5.57;83.29;98070.88;5050705;28;20053;-62
2023/02/17 00:38:46;;;;;;;8.05;4.15;;;;;;;5.55;83.26;98065.69;5051476;28;20123;-63
2023/02/17 00:41:14;;;;;;;8.90;3.20;;;;;;;5.88;81.25;98074.88;5052878;28;20075;-62
2023/02/17 00:43:40;;;;;;;7.40;3.00;;;;;;;6.09;79.46;98065.81;5055986;28;20145;-62
2023/02/17 00:46:07;;;;;;;6.15;2.83;;;;;;;6.41;77.59;98064.38;5054654;28;20044;-62
2023/02/17 00:48:33;;;;;;;7.70;3.30;;;;;;;6.50;77.12;98065.84;5046909;28;20087;-62
2023/02/17 00:51:00;;;;;;;6.55;3.05;;;;;;;6.61;76.25;98065.22;5055817;28;20041;-62
2023/02/17 00:53:27;;;;;;;5.63;3.05;;;;;;;6.74;75.40;98063.50;5058554;28;20047;-62
2023/02/17 00:55:53;;;;;;;8.25;3.10;;;;;;;6.81;74.95;98068.91;5055695;28;20576;-62
2023/02/17 00:58:20;;;;;;;6.90;2.67;;;;;;;6.80;75.15;98056.47;5056415;28;20127;-62
2023/02/17 01:00:46;;;;;;;7.32;3.05;;;;;;;6.68;75.92;98067.88;5054831;28;20518;-62
2023/02/17 01:03:13;;;;;;;5.60;3.22;;;;;;;6.75;75.16;98066.00;5050963;28;20088;-62
2023/02/17 01:05:41;;;;;;;8.15;3.17;;;;;;;6.85;74.21;98067.41;5056224;28;22395;-63
2023/02/17 01:08:08;;;;;;;5.95;3.10;;;;;;;6.96;74.03;98061.38;5053144;28;20044;-62
2023/02/17 01:10:37;;;;;;;6.22;3.22;;;;;;;6.94;73.71;98068.03;5049938;28;20589;-62
2023/02/17 01:13:05;;;;;;;8.27;2.90;;;;;;;6.93;74.03;98059.13;5055879;28;20040;-62
2023/02/17 01:15:39;;;;;;;8.05;3.15;;;;;;;6.92;74.04;98057.47;5047237;28;20519;-63
2023/02/17 01:18:06;;;;;;;6.57;2.95;;;;;;;6.66;75.11;98056.50;5059777;28;20040;-63
2023/02/17 01:20:34;;;;;;;6.68;3.63;;;;;;;6.27;78.38;98055.50;5051138;28;20128;-62
2023/02/17 01:23:01;;;;;;;7.03;4.20;;;;;;;6.11;78.55;98055.69;5052105;28;20052;-63
2023/02/17 01:25:28;;;;;;;7.97;3.63;;;;;;;5.91;79.83;98052.97;5052203;28;20543;-63
2023/02/17 01:27:55;;;;;;;6.88;3.50;;;;;;;5.79;80.69;98039.28;5054916;28;20616;-63
2023/02/17 01:30:22;;;;;;;6.28;3.50;;;;;;;5.79;80.96;98051.91;5051375;28;20049;-65
2023/02/17 01:32:48;;;;;;;6.40;3.05;;;;;;;5.73;82.22;98058.91;5050566;28;20051;-63
2023/02/17 01:35:15;;;;;;;8.55;3.83;;;;;;;5.69;82.72;98055.81;5053743;28;20469;-63
2023/02/17 01:37:43;;;;;;;7.75;3.30;;;;;;;5.59;82.28;98050.84;5051684;28;20037;-63
2023/02/17 01:40:15;;;;;;;12.68;3.70;;;;;;;5.49;82.97;98050.38;5051767;28;20486;-63
2023/02/17 01:42:42;;;;;;;6.55;3.42;;;;;;;5.49;83.46;98045.00;5051795;28;20473;-63
2023/02/17 01:45:17;;;;;;;6.13;2.90;;;;;;;5.67;83.66;98040.91;5049020;28;20032;-63
2023/02/17 01:47:54;;;;;;;5.95;2.97;;;;;;;5.63;83.02;98042.38;5053941;28;20036;-63
2023/02/17 01:50:26;;;;;;;7.03;3.53;;;;;;;5.39;83.76;98039.19;5056149;28;20045;-63
2023/02/17 01:52:54;;;;;;;6.90;3.40;;;;;;;5.16;85.59;98041.19;5051158;28;20052;-63
2023/02/17 01:55:24;;;;;;;6.05;3.13;;;;;;;5.08;86.43;98042.19;5053541;28;20064;-63
2023/02/17 01:57:55;;;;;;;7.80;3.35;;;;;;;5.02;86.83;98034.09;5052582;28;20084;-63
2023/02/17 02:00:25;;;;;;;6.43;3.30;;;;;;;4.95;87.39;98032.19;5050964;28;20070;-62
2023/02/17 02:02:52;;;;;;;7.20;3.38;;;;;;;5.01;87.00;98030.59;5047308;28;20829;-64
2023/02/17 02:05:20;;;;;;;6.90;2.90;;;;;;;5.31;85.12;98029.47;5049888;28;20473;-63
2023/02/17 02:07:48;;;;;;;8.93;4.05;;;;;;;5.65;82.61;98026.88;5053483;28;20059;-63
2023/02/17 02:10:16;;;;;;;6.55;2.55;;;;;;;5.91;81.00;98017.19;5050204;28;20041;-63
2023/02/17 02:12:43;;;;;;;9.23;3.30;;;;;;;6.17;79.12;98020.94;5052023;28;20114;-63
2023/02/17 02:15:13;;;;;;;6.35;2.40;;;;;;;6.40;77.88;98017.81;5049088;28;20504;-63
2023/02/17 02:18:07;;;;;;;7.43;2.97;;;;;;;6.55;76.79;98008.69;5052220;28;20064;-62
2023/02/17 02:20:34;;;;;;;6.88;2.90;;;;;;;6.72;75.88;98017.16;5055766;28;20114;-62
2023/02/17 02:23:33;;;;;;;6.88;2.95;;;;;;;6.72;75.63;98012.59;5054769;28;20040;-63
2023/02/17 02:26:02;;;;;;;6.55;2.72;;;;;;;6.75;75.73;98003.28;5052406;28;20435;-63
2023/02/17 02:29:06;;;;;;;7.95;3.00;;;;;;;6.75;76.01;98011.34;5062881;28;20687;-63
2023/02/17 02:31:57;;;;;;;6.28;2.78;;;;;;;6.76;75.76;98008.44;5053304;28;20098;-63
2023/02/17 02:34:37;;;;;;;7.97;2.95;;;;;;;6.80;75.56;98010.69;5053948;28;20040;-64
2023/02/17 02:37:32;;;;;;;6.40;2.90;;;;;;;6.89;74.96;98007.56;5054196;28;20415;-63
2023/02/17 02:40:02;;;;;;;7.35;2.88;;;;;;;6.86;75.28;98007.97;5052632;28;20116;-63
2023/02/17 02:42:30;;;;;;;7.72;2.90;;;;;;;6.89;75.06;98004.03;5055057;28;20281;-63
2023/02/17 02:44:57;;;;;;;10.32;3.30;;;;;;;6.65;76.47;97995.63;5055129;28;20418;-63
2023/02/17 02:47:41;;;;;;;4.45;2.50;;;;;;;6.59;76.64;97994.63;5051832;28;20048;-63
2023/02/17 02:50:15;;;;;;;4.85;2.22;;;;;;;6.70;76.19;97987.75;5054392;28;20500;-63
2023/02/17 02:53:16;;;;;;;6.32;2.60;;;;;;;6.81;75.49;97996.22;5056067;28;20040;-63
2023/02/17 02:55:58;;;;;;;5.70;3.05;;;;;;;6.66;76.08;97988.41;5053258;28;20056;-63
2023/02/17 02:58:28;;;;;;;5.63;3.17;;;;;;;6.47;77.06;97986.38;5055092;28;20040;-63
2023/02/17 03:01:01;;;;;;;6.25;2.85;;;;;;;6.35;78.06;97979.97;5054856;28;20033;-63
2023/02/17 03:03:40;;;;;;;7.07;2.80;;;;;;;6.24;78.27;97965.31;5053896;28;20504;-63
2023/02/17 03:06:20;;;;;;;6.28;3.25;;;;;;;5.91;80.72;97971.50;5051917;28;20044;-63
2023/02/17 03:08:54;;;;;;;4.97;2.90;;;;;;;5.94;80.31;97963.03;5054111;28;20071;-63
2023/02/17 03:11:31;;;;;;;8.38;3.50;;;;;;;5.40;83.69;97966.50;5051781;28;20078;-63
2023/02/17 03:14:11;;;;;;;5.43;2.92;;;;;;;5.41;84.54;97970.81;5052660;28;20041;-63
2023/02/17 03:16:40;;;;;;;7.63;2.80;;;;;;;5.38;84.09;97979.28;5056273;28;20240;-63
2023/02/17 03:19:08;;;;;;;5.55;2.35;;;;;;;5.64;82.93;97974.16;5050055;28;20047;-63
2023/02/17 03:21:47;;;;;;;6.47;2.75;;;;;;;5.55;83.13;97979.75;5050523;28;20051;-63
2023/02/17 03:24:14;;;;;;;6.35;3.22;;;;;;;5.31;84.31;97983.81;5060467;28;20047;-63
2023/02/17 03:26:42;;;;;;;6.25;3.13;;;;;;;5.23;84.52;97981.31;5052808;28;20102;-63
2023/02/17 03:29:08;;;;;;;7.60;3.25;;;;;;;4.93;86.89;97985.97;5052747;28;20037;-63
2023/02/17 03:31:35;;;;;;;10.55;3.30;;;;;;;4.76;88.51;97985.47;5055161;28;20048;-63
2023/02/17 03:34:02;;;;;;;5.72;2.60;;;;;;;4.58;88.88;97985.19;5056649;28;20124;-63
2023/02/17 03:36:29;;;;;;;5.18;3.05;;;;;;;4.31;91.03;97993.06;5051510;28;20067;-63
2023/02/17 03:38:56;;;;;;;4.88;2.67;;;;;;;4.19;91.76;97993.59;5057128;28;20073;-63
2023/02/17 03:41:22;;;;;;;5.85;2.80;;;;;;;4.19;92.67;97982.03;5052746;28;20701;-62
2023/02/17 03:43:49;;;;;;;4.93;2.60;;;;;;;4.16;93.28;97980.56;5053935;28;20044;-62
2023/02/17 03:46:16;;;;;;;6.93;3.42;;;;;;;4.06;94.39;97980.09;5053745;28;20128;-62
2023/02/17 03:48:43;;;;;;;5.57;3.03;;;;;;;4.15;94.19;97978.94;5051384;28;20132;-63
2023/02/17 03:51:13;;;;;;;5.65;2.50;;;;;;;4.08;94.79;97986.06;5064084;28;20047;-63
2023/02/17 03:53:40;;;;;;;4.72;2.50;;;;;;;4.00;95.55;97992.41;5059688;28;20040;-62
2023/02/17 03:56:07;;;;;;;7.72;3.60;;;;;;;4.03;96.00;97995.53;5053928;28;20528;-63
2023/02/17 03:58:33;;;;;;;5.20;2.60;;;;;;;4.14;95.65;97988.84;5056590;28;20158;-63
2023/02/17 04:01:00;;;;;;;4.68;2.60;;;;;;;4.20;96.10;97991.75;5054309;28;20037;-63
2023/02/17 04:03:27;;;;;;;5.53;2.60;;;;;;;4.28;95.95;97995.09;5051275;28;20109;-63
2023/02/17 04:05:54;;;;;;;5.50;2.50;;;;;;;4.39;95.88;97995.59;5051155;28;20124;-63
2023/02/17 04:08:21;;;;;;;6.38;3.05;;;;;;;4.53;95.78;98000.00;5053411;28;20044;-63
2023/02/17 04:10:52;;;;;;;6.35;2.83;;;;;;;5.21;93.75;98003.00;5049360;28;20056;-63
2023/02/17 04:13:18;;;;;;;6.15;2.95;;;;;;;5.40;92.01;98000.56;5052274;28;20045;-63
2023/02/17 04:15:45;;;;;;;6.88;2.90;;;;;;;5.55;91.05;98005.75;5053805;28;20282;-63
2023/02/17 04:18:12;;;;;;;9.10;3.30;;;;;;;5.60;90.30;98001.44;5056155;28;20102;-63
2023/02/17 04:20:38;;;;;;;6.05;2.75;;;;;;;5.63;90.42;97989.44;5055608;28;20463;-64
2023/02/17 04:23:05;;;;;;;6.88;2.60;;;;;;;5.66;90.56;97993.59;5056078;28;20041;-64
2023/02/17 04:25:35;;;;;;;5.50;3.13;;;;;;;5.71;90.92;97986.56;5051887;28;20044;-63
2023/02/17 04:28:03;;;;;;;5.57;2.55;;;;;;;5.75;90.88;97992.34;5052847;28;20408;-63
2023/02/17 04:30:31;;;;;;;7.20;3.08;;;;;;;5.83;90.90;97992.16;5055393;28;20640;-63
2023/02/17 04:32:58;;;;;;;5.85;3.17;;;;;;;5.88;90.81;97975.41;5048793;28;20048;-63
2023/02/17 04:35:25;;;;;;;6.47;2.55;;;;;;;5.95;91.48;97970.03;5055763;28;20124;-64
2023/02/17 04:37:52;;;;;;;6.30;2.58;;;;;;;6.03;91.42;97967.19;5051447;28;20500;-64
2023/02/17 04:40:18;;;;;;;5.20;2.45;;;;;;;6.15;91.02;97967.38;5056597;28;20500;-64
2023/02/17 04:42:45;;;;;;;5.60;2.17;;;;;;;6.30;90.59;97966.34;5053122;28;20044;-63
2023/02/17 04:45:12;;;;;;;6.68;1.95;;;;;;;6.36;90.45;97971.69;5064422;28;20076;-64
2023/02/17 04:47:39;;;;;;;6.90;2.80;;;;;;;6.63;89.69;97968.09;5050240;28;20478;-63
2023/02/17 04:50:07;;;;;;;3.25;2.00;;;;;;;7.17;87.76;97965.19;5054187;28;20254;-63
2023/02/17 04:52:34;;;;;;;8.52;2.10;;;;;;;7.38;86.51;97960.53;5054938;28;20071;-63
2023/02/17 04:55:00;;;;;;;4.03;1.85;;;;;;;7.55;85.46;97967.06;5064942;28;20474;-62
2023/02/17 04:57:27;;;;;;;4.88;1.95;;;;;;;7.73;84.09;97960.09;5055685;28;20508;-63
2023/02/17 04:59:53;;;;;;;5.25;1.92;;;;;;;7.78;83.65;97962.94;5054382;28;20128;-63
2023/02/17 05:02:20;;;;;;;3.80;1.75;;;;;;;7.85;83.03;97960.19;5053355;28;20310;-63
2023/02/17 05:04:47;;;;;;;3.95;1.90;;;;;;;7.73;83.67;97959.25;5061529;28;20131;-63
2023/02/17 05:07:13;;;;;;;4.32;1.90;;;;;;;7.73;83.83;97959.25;5062715;28;20048;-63
2023/02/17 05:09:40;;;;;;;5.57;2.35;;;;;;;7.69;84.42;97953.47;5064220;28;20154;-63
2023/02/17 05:12:07;;;;;;;6.15;2.38;;;;;;;7.64;84.65;97956.84;5055009;28;20565;-63
2023/02/17 05:14:33;;;;;;;4.20;1.70;;;;;;;7.95;83.79;97959.69;5054677;28;20051;-63
2023/02/17 05:16:59;;;;;;;6.68;2.22;;;;;;;8.02;83.79;97962.34;5020470;28;20040;-63
2023/02/17 05:19:26;;;;;;;3.55;1.92;;;;;;;8.07;83.29;97955.25;5036914;28;20204;-63
2023/02/17 05:21:53;;;;;;;4.05;1.90;;;;;;;7.89;84.19;97958.72;5059444;28;20461;-63
2023/02/17 05:24:19;;;;;;;19.67;8.55;;;;;;;7.97;83.83;97963.03;5061914;28;20049;-63
2023/02/17 05:26:46;;;;;;;4.50;3.00;;;;;;;7.87;84.50;97973.47;5060296;28;20071;-63
2023/02/17 05:29:12;;;;;;;5.70;2.35;;;;;;;7.96;84.35;97982.13;5063442;28;20051;-63
2023/02/17 05:31:39;;;;;;;6.35;2.33;;;;;;;8.10;83.84;97978.25;5051561;28;20045;-64
2023/02/17 05:34:05;;;;;;;4.50;2.05;;;;;;;8.10;83.82;97980.13;5065958;28;20478;-64
2023/02/17 05:36:32;;;;;;;6.15;2.33;;;;;;;8.00;84.44;97977.94;5055658;28;20039;-63
2023/02/17 05:38:58;;;;;;;3.42;1.80;;;;;;;7.94;84.91;97976.94;5059939;28;20041;-63
2023/02/17 05:41:25;;;;;;;5.28;2.55;;;;;;;7.88;85.42;97981.34;5063220;28;20047;-63
2023/02/17 05:43:51;;;;;;;5.55;2.67;;;;;;;7.89;85.47;97982.16;5058584;28;20041;-63
2023/02/17 05:46:18;;;;;;;7.00;2.38;;;;;;;7.97;85.52;97972.97;5060280;28;20619;-63
2023/02/17 05:48:44;;;;;;;5.90;2.30;;;;;;;7.83;86.18;97978.47;5067639;28;20612;-64
2023/02/17 05:51:15;;;;;;;5.88;2.35;;;;;;;7.80;86.31;97981.59;5066446;28;20124;-64
2023/02/17 05:53:43;;;;;;;5.88;2.80;;;;;;;7.93;86.04;97988.78;5063245;28;20102;-61
2023/02/17 05:56:09;;;;;;;6.03;2.53;;;;;;;8.03;85.60;97988.25;5065921;28;20060;-63
2023/02/17 05:58:36;;;;;;;6.78;2.58;;;;;;;8.01;85.58;97993.06;5058456;28;20412;-63
2023/02/17 06:01:10;;;;;;;4.65;2.40;;;;;;;7.94;85.85;97991.25;5068053;28;20040;-63
2023/02/17 06:03:37;;;;;;;4.10;2.50;;;;;;;7.91;86.39;97988.16;5059393;28;20102;-63
2023/02/17 06:06:04;;;;;;;7.78;2.65;;;;;;;7.71;87.54;97991.00;5069043;28;20127;-63
2023/02/17 06:08:32;;;;;;;6.15;2.60;;;;;;;7.58;88.70;97992.75;5061395;28;20131;-63
2023/02/17 06:10:58;;;;;;;4.57;2.28;;;;;;;7.61;88.35;97991.47;5064531;28;20032;-63
2023/02/17 06:13:25;;;;;;;4.97;2.55;;;;;;;7.66;88.32;97997.88;5068718;28;20044;-63
2023/02/17 06:15:51;;;;;;;5.78;2.90;;;;;;;7.72;87.93;97998.88;5060970;28;20039;-63
2023/02/17 06:18:18;;;;;;;5.65;2.15;;;;;;;7.78;87.73;98007.97;5065360;28;20373;-63
2023/02/17 06:20:45;;;;;;;7.00;2.80;;;;;;;7.88;87.88;98004.75;5061894;28;20050;-63
2023/02/17 06:23:11;;;;;;;6.90;2.55;;;;;;;7.89;87.46;98014.53;5055379;28;20092;-63
2023/02/17 06:25:38;;;;;;;5.07;2.38;;;;;;;7.89;87.81;98023.41;5064905;28;20033;-60
2023/02/17 06:28:04;;;;;;;5.40;2.60;;;;;;;8.01;87.57;98014.63;5063433;28;20180;-58
2023/02/17 06:30:31;;;;;;;4.05;2.60;;;;;;;8.07;87.33;98011.03;5064420;28;20035;-60
2023/02/17 06:32:58;;;;;;;6.85;3.35;;;;;;;8.02;87.79;98006.31;5057998;28;20041;-58
2023/02/17 06:35:25;;;;;;;5.65;2.53;;;;;;;8.07;87.92;98002.94;5061049;28;20350;-59
2023/02/17 06:37:51;;;;;;;8.50;2.80;;;;;;;8.07;87.97;98006.50;5061895;28;20300;-61
2023/02/17 06:40:18;;;;;;;6.05;2.65;;;;;;;8.03;88.68;98015.22;5063928;28;20040;-58
2023/02/17 06:42:45;;;;;;;5.28;2.28;;;;;;;8.12;88.37;98013.94;5064729;28;20102;-61
2023/02/17 06:45:12;;;;;;;7.88;2.20;;;;;;;8.02;88.98;98013.59;5059788;28;20045;-60
2023/02/17 06:47:38;;;;;;;5.97;2.05;;;;;;;8.10;88.20;98010.63;5068443;28;20480;-60
2023/02/17 06:50:06;;;;;;;3.92;1.65;;;;;;;8.14;88.89;98016.41;5061355;28;20113;-61
2023/02/17 06:52:32;;;;;;;5.40;2.28;;;;;;;8.25;88.67;98014.88;5057641;28;20045;-60
2023/02/17 06:54:59;;;;;;;5.78;2.33;;;;;;;8.28;88.32;98019.81;5059836;28;20080;-60
2023/02/17 06:57:25;;;;;;;6.10;2.38;;;;;;;8.31;88.07;98028.31;5063352;28;20392;-60
2023/02/17 06:59:51;;;;;;;4.82;2.08;;;;;;;8.23;88.31;98027.75;5065545;28;20069;-60
2023/02/17 07:02:18;;;;;;;6.95;2.30;;;;;;;8.35;88.01;98030.53;5059012;28;20064;-60
2023/02/17 07:04:45;;;;;;;4.57;2.50;;;;;;;8.36;88.10;98026.81;5062047;28;20067;-60
2023/02/17 07:07:11;;;;;;;7.38;3.42;;;;;;;8.20;88.75;98029.00;5059978;28;20323;-59
2023/02/17 07:09:39;;;;;;;5.18;2.13;;;;;;;8.30;88.63;98031.22;5007815;28;20508;-59
2023/02/17 07:12:06;;;;;;;3.65;2.22;;;;;;;8.18;88.69;98031.91;5046633;28;20588;-60
2023/02/17 07:14:33;;;;;;;7.00;3.05;;;;;;;8.01;90.05;98041.59;5061831;28;20071;-60
2023/02/17 07:17:00;;;;;;;6.18;2.70;;;;;;;7.93;90.08;98031.91;5062407;28;20067;-60
2023/02/17 07:19:27;;;;;;;4.28;2.30;;;;;;;7.97;90.47;98043.09;5068500;28;20515;-60
2023/02/17 07:21:53;;;;;;;6.78;2.42;;;;;;;7.98;90.80;98045.56;5064824;28;20048;-61
2023/02/17 07:24:20;;;;;;;4.82;2.28;;;;;;;8.01;90.47;98050.53;5066736;28;20427;-59
2023/02/17 07:26:47;;;;;;;8.25;2.38;;;;;;;8.13;89.57;98050.66;5059789;28;20055;-61
2023/02/17 07:29:14;;;;;;;6.10;2.47;;;;;;;8.10;90.07;98053.78;5054675;28;20148;-59
2023/02/17 07:31:40;;;;;;;6.80;2.80;;;;;;;8.00;90.56;98056.13;5056258;28;20041;-58
2023/02/17 07:34:07;;;;;;;8.48;2.90;;;;;;;8.00;90.75;98048.06;5054999;28;20040;-58
2023/02/17 07:36:33;;;;;;;8.15;3.78;;;;;;;8.08;90.37;98050.47;5057086;28;20064;-58
2023/02/17 07:39:02;;;;;;;5.75;2.75;;;;;;;8.00;91.56;98050.75;5061188;28;20048;-56
2023/02/17 07:41:29;;;;;;;5.03;2.50;;;;;;;7.96;92.27;98047.63;5057933;28;20037;-59
2023/02/17 07:43:57;;;;;;;8.35;2.95;;;;;;;7.92;92.35;98052.66;5054928;28;20474;-59
2023/02/17 07:46:24;;;;;;;7.82;2.78;;;;;;;7.97;92.44;98059.25;5061065;28;20040;-56
2023/02/17 07:48:51;;;;;;;6.45;2.75;;;;;;;8.11;91.73;98060.81;5062484;28;20474;-57
2023/02/17 07:51:20;;;;;;;6.00;2.72;;;;;;;8.11;92.22;98068.91;5058137;28;20090;-56
2023/02/17 07:53:47;;;;;;;5.85;2.50;;;;;;;8.14;92.06;98063.06;5065466;28;20478;-57
2023/02/17 07:56:15;;;;;;;4.05;2.00;;;;;;;8.16;92.29;98061.00;5066892;28;20071;-56
2023/02/17 07:58:43;;;;;;;4.55;2.40;;;;;;;8.18;92.17;98061.59;5059358;28;20473;-57
2023/02/17 08:01:13;;;;;;;6.22;2.30;;;;;;;8.15;93.06;98061.22;5059079;28;20048;-58
2023/02/17 08:03:40;;;;;;;7.00;2.47;;;;;;;8.23;92.66;98062.81;5059666;28;20119;-58
2023/02/17 08:06:18;;;;;;;4.35;2.72;;;;;;;8.44;91.40;98059.72;5063422;28;20045;-57
2023/02/17 08:14:16;;;;;;;4.93;2.63;;;;;;;8.20;92.92;98061.38;5059071;28;20059;-57
2023/02/17 08:16:43;;;;;;;6.88;2.40;;;;;;;8.24;92.75;98064.47;5061095;28;20088;-59
2023/02/17 08:19:09;;;;;;;5.00;2.13;;;;;;;8.17;93.23;98059.94;5060815;28;20131;-59
2023/02/17 08:21:36;;;;;;;6.78;2.50;;;;;;;8.24;92.89;98069.84;5056968;28;20486;-57
2023/02/17 08:24:03;;;;;;;5.10;2.30;;;;;;;8.26;93.08;98067.78;5055992;28;20115;-57
2023/02/17 08:26:29;;;;;;;5.40;2.28;;;;;;;8.29;93.06;98068.16;5063812;28;20151;-59
2023/02/17 08:28:56;;;;;;;5.63;2.30;;;;;;;8.33;93.19;98065.81;5058224;28;20037;-60
2023/02/17 08:31:31;;;;;;;6.03;2.40;;;;;;;8.37;93.10;98068.94;5062430;28;20040;-56
2023/02/17 08:34:06;;;;;;;5.00;2.20;;;;;;;8.44;93.15;98075.13;5061365;28;20078;-59
2023/02/17 08:36:33;;;;;;;5.13;2.15;;;;;;;8.54;92.84;98078.16;5062948;28;20242;-59
2023/02/17 08:39:00;;;;;;;5.55;2.28;;;;;;;8.51;92.81;98058.84;5066947;28;20043;-59
2023/02/17 08:41:38;;;;;;;4.57;1.80;;;;;;;8.52;93.16;98068.59;5060257;28;20094;-58
2023/02/17 08:44:11;;;;;;;7.18;2.30;;;;;;;8.47;93.35;98069.25;5045132;28;20773;-58
2023/02/17 08:46:37;;;;;;;4.88;2.35;;;;;;;8.39;93.76;98054.16;5061710;28;20242;-59
2023/02/17 08:49:04;;;;;;;4.57;2.35;;;;;;;8.35;94.07;98063.75;5049905;28;20044;-59
2023/02/17 08:51:31;;;;;;;6.25;2.58;;;;;;;8.37;94.03;98055.44;5063311;28;20040;-59
2023/02/17 08:54:02;;;;;;;6.80;4.00;;;;;;;8.34;94.27;98059.41;5056630;28;20474;-59
2023/02/17 08:56:29;;;;;;;4.70;2.73;;;;;;;8.42;93.61;98063.69;5063251;28;20076;-58
2023/02/17 08:58:55;;;;;;;5.38;2.30;;;;;;;8.39;94.42;98059.56;5048372;28;20490;-59
2023/02/17 09:01:22;;;;;;;4.57;2.47;;;;;;;8.50;93.46;98051.78;5055853;28;20059;-58
2023/02/17 09:03:51;;;;;;;7.95;4.25;;;;;;;8.53;93.65;98048.69;5055388;28;20068;-58
2023/02/17 09:06:19;;;;;;;40.83;23.85;;;;;;;8.50;93.84;98052.63;5063178;28;20048;-59
2023/02/17 09:08:46;;;;;;;12.30;7.35;;;;;;;8.52;93.92;98047.81;5060390;28;20043;-58
2023/02/17 09:11:15;;;;;;;5.25;2.60;;;;;;;8.59;94.29;98055.91;5058002;28;20482;-59
2023/02/17 09:13:44;;;;;;;7.38;4.07;;;;;;;8.73;93.86;98053.06;5055221;28;20134;-58
2023/02/17 09:16:10;;;;;;;5.55;2.80;;;;;;;8.84;93.44;98052.31;5065538;28;20499;-57
2023/02/17 09:18:37;;;;;;;7.43;4.20;;;;;;;9.04;92.93;98054.81;5062029;28;20068;-57
2023/02/17 09:21:09;;;;;;;6.00;2.88;;;;;;;9.19;92.23;98054.44;5058795;28;20044;-58
2023/02/17 09:23:36;;;;;;;7.30;3.97;;;;;;;9.30;92.22;98043.91;5059909;28;20049;-58
2023/02/17 09:26:05;;;;;;;9.98;4.65;;;;;;;9.43;92.81;98038.34;5063873;28;20056;-57
2023/02/17 09:28:32;;;;;;;6.75;2.33;;;;;;;9.49;92.46;98034.75;5060503;28;20060;-59
2023/02/17 09:31:18;;;;;;;4.25;1.88;;;;;;;9.61;91.89;98044.75;5062134;28;20040;-58
2023/02/17 09:33:49;;;;;;;2.97;1.38;;;;;;;9.84;90.88;98065.66;5060125;28;20094;-57
2023/02/17 09:36:22;;;;;;;1.67;0.97;;;;;;;10.07;90.29;98071.38;5058052;28;20068;-59
2023/02/17 09:38:49;;;;;;;1.15;0.63;;;;;;;10.23;89.74;98075.28;5059516;28;20070;-57
2023/02/17 09:41:34;;;;;;;2.15;0.90;;;;;;;10.54;88.42;98082.31;5059165;28;20037;-59
2023/02/17 09:44:01;;;;;;;1.27;0.70;;;;;;;10.75;87.48;98082.78;5058996;28;20455;-60
2023/02/17 09:46:37;;;;;;;1.48;0.80;;;;;;;10.91;87.01;98081.25;5056193;28;20041;-59
2023/02/17 09:49:11;;;;;;;2.35;1.35;;;;;;;10.65;88.20;98079.84;5062411;28;20080;-59
2023/02/17 09:51:47;;;;;;;2.33;0.80;;;;;;;10.68;87.69;98082.06;5063867;28;20502;-59
2023/02/17 09:54:25;;;;;;;2.03;0.70;;;;;;;10.54;89.08;98082.31;5054939;28;20063;-58
2023/02/17 09:56:53;;;;;;;1.48;0.65;;;;;;;10.48;89.79;98099.50;5067274;28;20304;-59
2023/02/17 09:59:22;;;;;;;1.38;0.90;;;;;;;10.52;89.56;98108.81;5063615;28;20113;-57
2023/02/17 10:01:51;;;;;;;1.48;0.80;;;;;;;10.50;89.76;98099.25;5057671;28;20045;-58
2023/02/17 10:04:36;;;;;;;1.08;0.52;;;;;;;10.60;88.90;98106.78;5064195;28;20722;-57
2023/02/17 10:07:21;;;;;;;2.08;0.60;;;;;;;10.72;88.62;98096.81;5053501;28;20041;-59
2023/02/17 10:09:52;;;;;;;1.23;0.60;;;;;;;11.05;87.13;98094.53;5056371;28;20060;-59
2023/02/17 10:12:23;;;;;;;2.72;0.88;;;;;;;11.13;86.78;98096.09;5058105;28;20071;-59
2023/02/17 10:15:08;;;;;;;1.77;0.80;;;;;;;11.18;86.88;98083.44;5056018;28;20054;-58
2023/02/17 10:17:41;;;;;;;2.08;0.52;;;;;;;11.27;86.51;98085.78;5056662;28;20040;-59
2023/02/17 10:20:15;;;;;;;1.15;0.45;;;;;;;11.58;85.58;98087.25;5051933;28;20060;-58
2023/02/17 10:22:46;;;;;;;0.70;0.40;;;;;;;11.87;83.90;98083.72;5070493;28;20390;-58
2023/02/17 10:25:20;;;;;;;2.37;0.47;;;;;;;11.81;84.42;98073.84;5061948;28;20051;-59
2023/02/17 10:28:07;;;;;;;1.00;0.45;;;;;;;11.88;84.60;98073.69;5056712;28;20316;-59
2023/02/17 10:31:02;;;;;;;0.80;0.50;;;;;;;11.87;84.39;98075.56;5052657;28;20127;-60
2023/02/17 10:33:36;;;;;;;1.20;0.50;;;;;;;11.84;83.65;98089.66;5055420;28;20071;-59
2023/02/17 10:36:24;;;;;;;1.45;0.70;;;;;;;11.81;84.43;98090.97;5063450;28;20105;-57
2023/02/17 10:38:57;;;;;;;1.67;0.40;;;;;;;11.88;84.14;98087.25;5063309;28;20049;-58
2023/02/17 10:41:33;;;;;;;2.95;0.25;;;;;;;11.74;85.39;98087.56;5063159;28;20033;-58
2023/02/17 10:44:05;;;;;;;1.42;0.40;;;;;;;11.79;85.28;98084.94;5063567;28;20713;-59
2023/02/17 10:46:33;;;;;;;0.90;0.35;;;;;;;11.67;85.53;98092.28;5069703;28;20048;-58
2023/02/17 10:49:00;;;;;;;2.10;0.45;;;;;;;11.73;85.21;98079.66;5074286;28;20048;-57
2023/02/17 10:51:29;;;;;;;0.80;0.38;;;;;;;11.81;85.29;98079.28;5066055;28;20504;-57
2023/02/17 10:54:02;;;;;;;1.10;0.30;;;;;;;11.85;85.20;98066.88;5067480;28;20508;-58
2023/02/17 10:56:38;;;;;;;0.90;0.30;;;;;;;12.15;85.07;98071.22;5062622;28;20131;-57
2023/02/17 10:59:14;;;;;;;0.40;0.20;;;;;;;12.16;84.64;98061.19;5067951;28;20055;-57
2023/02/17 11:01:41;;;;;;;0.38;0.28;;;;;;;12.16;85.36;98067.44;5066126;28;20707;-57
2023/02/17 11:04:09;;;;;;;0.47;0.30;;;;;;;12.22;83.73;98063.75;5070724;28;20089;-56
2023/02/17 11:06:48;;;;;;;0.93;0.30;;;;;;;12.13;84.46;98056.25;5065611;28;20076;-58
2023/02/17 11:09:27;;;;;;;2.25;0.95;;;;;;;12.30;83.98;98050.81;5069922;28;20052;-58
2023/02/17 11:12:09;;;;;;;0.90;0.40;;;;;;;12.09;84.75;98050.50;5062623;28;20124;-60
2023/02/17 11:14:42;;;;;;;2.92;0.47;;;;;;;12.18;84.42;98045.47;5063526;28;20056;-59
2023/02/17 11:17:34;;;;;;;1.27;0.60;;;;;;;11.87;85.32;98050.34;5061914;28;20083;-59
2023/02/17 11:20:05;;;;;;;4.72;0.52;;;;;;;12.00;85.80;98044.59;5066791;28;20432;-60
2023/02/17 11:22:43;;;;;;;4.10;1.10;;;;;;;11.87;86.03;98036.78;5063657;28;20045;-59
2023/02/17 11:25:21;;;;;;;1.83;0.60;;;;;;;11.76;86.39;98035.78;5059549;28;20049;-59
2023/02/17 11:27:53;;;;;;;1.48;0.35;;;;;;;11.81;86.78;98035.84;5063540;28;20126;-58
2023/02/17 11:30:20;;;;;;;;;;;;;;;11.85;86.31;98037.03;5069812;28;20127;-59
2023/02/17 11:32:47;;;;;;;1.27;0.50;;;;;;;11.87;85.60;98045.72;5067720;28;20283;-59
2023/02/17 11:35:36;;;;;;;0.60;0.40;;;;;;;11.81;86.48;98041.28;5061970;28;20527;-59
2023/02/17 11:38:52;;;;;;;5.80;0.82;;;;;;;11.95;85.51;98034.47;5062227;28;20489;-58
2023/02/17 11:41:19;;;;;;;5.85;0.68;;;;;;;12.08;85.17;98041.53;5060425;28;20096;-58
2023/02/17 11:43:58;;;;;;;4.60;0.50;;;;;;;11.92;85.46;98040.41;5061077;28;20044;-58
2023/02/17 11:46:42;;;;;;;1.48;0.30;;;;;;;12.04;85.24;98042.22;5064883;28;20047;-55
2023/02/17 11:49:12;;;;;;;0.82;0.40;;;;;;;12.00;85.33;98051.91;5064044;28;20040;-59
2023/02/17 11:52:02;;;;;;;0.63;0.30;;;;;;;12.15;84.60;98040.53;5065439;28;20131;-58
2023/02/17 11:54:46;;;;;;;1.03;0.40;;;;;;;12.09;84.81;98047.78;5065203;28;20105;-58
2023/02/17 11:58:00;;;;;;;1.25;0.40;;;;;;;12.01;84.77;98040.81;5060971;28;20466;-57
2023/02/17 12:00:43;;;;;;;1.67;0.40;;;;;;;12.15;85.12;98037.81;5053337;28;20454;-59